sensor_id;sensor_type;location;lat;lon;timestamp;temperature;humidity
12578;DHT22;6354;51.026;8.968;2023-04-21T00:01:40;9.20;99.90
12578;DHT22;6354;51.026;8.968;2023-04-21T00:04:08;9.30;99.90
12578;DHT22;6354;51.026;8.968;2023-04-21T00:06:39;9.30;99.90
12578;DHT22;6354;51.026;8.968;2023-04-21T00:09:08;9.40;99.90
12578;DHT22;6354;51.026;8.968;2023-04-21T00:11:36;9.30;99.90
12578;DHT22;6354;51.026;8.968;2023-04-21T00:14:04;9.30;99.90
12578;DHT22;6354;51.026;8.968;2023-04-21T00:16:34;9.40;99.90
12578;DHT22;6354;51.026;8.968;2023-04-21T00:19:02;9.40;99.90
12578;DHT22;6354;51.026;8.968;2023-04-21T00:21:32;9.40;99.90
12578;DHT22;6354;51.026;8.968;2023-04-21T00:24:00;9.40;99.90
12578;DHT22;6354;51.026;8.968;2023-04-21T00:26:28;9.40;99.90
12578;DHT22;6354;51.026;8.968;2023-04-21T00:28:56;9.50;99.90
12578;DHT22;6354;51.026;8.968;2023-04-21T00:31:24;9.50;99.90
12578;DHT22;6354;51.026;8.968;2023-04-21T00:33:54;9.50;99.90
12578;DHT22;6354;51.026;8.968;2023-04-21T00:36:22;9.60;99.90
12578;DHT22;6354;51.026;8.968;2023-04-21T00:38:53;9.50;99.90
12578;DHT22;6354;51.026;8.968;2023-04-21T00:41:21;9.60;99.90
12578;DHT22;6354;51.026;8.968;2023-04-21T00:43:59;9.60;99.90
12578;DHT22;6354;51.026;8.968;2023-04-21T00:46:28;9.60;99.90
12578;DHT22;6354;51.026;8.968;2023-04-21T00:48:57;9.70;99.90
12578;DHT22;6354;51.026;8.968;2023-04-21T00:51:27;9.60;99.90
12578;DHT22;6354;51.026;8.968;2023-04-21T00:53:55;9.70;99.90
12578;DHT22;6354;51.026;8.968;2023-04-21T00:56:25;9.60;99.90
12578;DHT22;6354;51.026;8.968;2023-04-21T00:58:53;9.60;99.90
12578;DHT22;6354;51.026;8.968;2023-04-21T01:01:21;9.60;99.90
12578;DHT22;6354;51.026;8.968;2023-04-21T01:03:50;9.60;99.90
12578;DHT22;6354;51.026;8.968;2023-04-21T01:06:19;9.70;99.90
12578;DHT22;6354;51.026;8.968;2023-04-21T01:08:48;9.60;99.90
12578;DHT22;6354;51.026;8.968;2023-04-21T01:11:16;9.60;99.90
12578;DHT22;6354;51.026;8.968;2023-04-21T01:13:44;9.60;99.90
12578;DHT22;6354;51.026;8.968;2023-04-21T01:16:15;9.60;99.90
12578;DHT22;6354;51.026;8.968;2023-04-21T01:18:43;9.50;99.90
12578;DHT22;6354;51.026;8.968;2023-04-21T01:21:12;9.50;99.90
12578;DHT22;6354;51.026;8.968;2023-04-21T01:23:42;9.60;99.90
12578;DHT22;6354;51.026;8.968;2023-04-21T01:26:10;9.60;99.90
12578;DHT22;6354;51.026;8.968;2023-04-21T01:28:38;9.60;99.90
12578;DHT22;6354;51.026;8.968;2023-04-21T01:31:06;9.60;99.90
12578;DHT22;6354;51.026;8.968;2023-04-21T01:33:34;9.60;99.90
12578;DHT22;6354;51.026;8.968;2023-04-21T01:36:02;9.60;99.90
12578;DHT22;6354;51.026;8.968;2023-04-21T01:38:30;9.50;99.90
12578;DHT22;6354;51.026;8.968;2023-04-21T01:40:59;9.50;99.90
12578;DHT22;6354;51.026;8.968;2023-04-21T01:43:27;9.50;99.90
12578;DHT22;6354;51.026;8.968;2023-04-21T01:45:55;9.60;99.90
12578;DHT22;6354;51.026;8.968;2023-04-21T01:48:23;9.60;99.90
12578;DHT22;6354;51.026;8.968;2023-04-21T01:50:51;9.60;99.90
12578;DHT22;6354;51.026;8.968;2023-04-21T01:53:19;9.60;99.90
12578;DHT22;6354;51.026;8.968;2023-04-21T01:55:47;9.60;99.90
12578;DHT22;6354;51.026;8.968;2023-04-21T01:58:17;9.60;99.90
12578;DHT22;6354;51.026;8.968;2023-04-21T02:00:45;9.60;99.90
12578;DHT22;6354;51.026;8.968;2023-04-21T02:03:13;9.50;99.90
12578;DHT22;6354;51.026;8.968;2023-04-21T02:05:41;9.50;99.90
12578;DHT22;6354;51.026;8.968;2023-04-21T02:08:09;9.50;99.90
12578;DHT22;6354;51.026;8.968;2023-04-21T02:10:37;9.50;99.90
12578;DHT22;6354;51.026;8.968;2023-04-21T02:13:05;9.50;99.90
12578;DHT22;6354;51.026;8.968;2023-04-21T02:15:36;9.50;99.90
12578;DHT22;6354;51.026;8.968;2023-04-21T02:18:04;9.50;99.90
12578;DHT22;6354;51.026;8.968;2023-04-21T02:20:34;9.50;99.90
12578;DHT22;6354;51.026;8.968;2023-04-21T02:23:02;9.50;99.90
12578;DHT22;6354;51.026;8.968;2023-04-21T02:25:30;9.60;99.90
12578;DHT22;6354;51.026;8.968;2023-04-21T02:27:58;9.50;99.90
12578;DHT22;6354;51.026;8.968;2023-04-21T02:30:26;9.50;99.90
12578;DHT22;6354;51.026;8.968;2023-04-21T02:32:56;9.60;99.90
12578;DHT22;6354;51.026;8.968;2023-04-21T02:35:24;9.50;99.90
12578;DHT22;6354;51.026;8.968;2023-04-21T02:37:52;9.50;99.90
12578;DHT22;6354;51.026;8.968;2023-04-21T02:40:20;9.60;99.90
12578;DHT22;6354;51.026;8.968;2023-04-21T02:42:48;9.70;99.90
12578;DHT22;6354;51.026;8.968;2023-04-21T02:45:16;9.60;99.90
12578;DHT22;6354;51.026;8.968;2023-04-21T02:47:44;9.50;99.90
12578;DHT22;6354;51.026;8.968;2023-04-21T02:50:14;9.50;99.90
12578;DHT22;6354;51.026;8.968;2023-04-21T02:52:42;9.40;99.90
12578;DHT22;6354;51.026;8.968;2023-04-21T02:55:10;9.50;99.90
12578;DHT22;6354;51.026;8.968;2023-04-21T02:57:38;9.60;99.90
12578;DHT22;6354;51.026;8.968;2023-04-21T03:00:07;9.50;99.90
12578;DHT22;6354;51.026;8.968;2023-04-21T03:02:37;9.50;99.90
12578;DHT22;6354;51.026;8.968;2023-04-21T03:05:06;9.50;99.90
12578;DHT22;6354;51.026;8.968;2023-04-21T03:07:35;9.50;99.90
12578;DHT22;6354;51.026;8.968;2023-04-21T03:10:04;9.60;99.90
12578;DHT22;6354;51.026;8.968;2023-04-21T03:12:32;9.60;99.90
12578;DHT22;6354;51.026;8.968;2023-04-21T03:15:01;9.50;99.90
12578;DHT22;6354;51.026;8.968;2023-04-21T03:17:29;9.50;99.90
12578;DHT22;6354;51.026;8.968;2023-04-21T03:19:59;9.50;99.90
12578;DHT22;6354;51.026;8.968;2023-04-21T03:22:27;9.50;99.90
12578;DHT22;6354;51.026;8.968;2023-04-21T03:24:56;9.50;99.90
12578;DHT22;6354;51.026;8.968;2023-04-21T03:27:24;9.60;99.90
12578;DHT22;6354;51.026;8.968;2023-04-21T03:29:52;9.60;99.90
12578;DHT22;6354;51.026;8.968;2023-04-21T03:32:20;9.70;99.90
12578;DHT22;6354;51.026;8.968;2023-04-21T03:34:49;9.60;99.90
12578;DHT22;6354;51.026;8.968;2023-04-21T03:37:17;9.60;99.90
12578;DHT22;6354;51.026;8.968;2023-04-21T03:39:45;9.60;99.90
12578;DHT22;6354;51.026;8.968;2023-04-21T03:42:14;9.60;99.90
12578;DHT22;6354;51.026;8.968;2023-04-21T03:44:42;9.60;99.90
12578;DHT22;6354;51.026;8.968;2023-04-21T03:47:10;9.60;99.90
12578;DHT22;6354;51.026;8.968;2023-04-21T03:49:38;9.50;99.90
12578;DHT22;6354;51.026;8.968;2023-04-21T03:52:06;9.60;99.90
12578;DHT22;6354;51.026;8.968;2023-04-21T03:54:34;9.50;99.90
12578;DHT22;6354;51.026;8.968;2023-04-21T03:57:02;9.60;99.90
12578;DHT22;6354;51.026;8.968;2023-04-21T03:59:31;9.60;99.90
12578;DHT22;6354;51.026;8.968;2023-04-21T04:01:59;9.60;99.90
12578;DHT22;6354;51.026;8.968;2023-04-21T04:04:27;9.60;99.90
12578;DHT22;6354;51.026;8.968;2023-04-21T04:06:56;9.60;99.90
12578;DHT22;6354;51.026;8.968;2023-04-21T04:09:24;9.40;99.90
12578;DHT22;6354;51.026;8.968;2023-04-21T04:11:52;9.50;99.90
12578;DHT22;6354;51.026;8.968;2023-04-21T04:14:20;9.50;99.90
12578;DHT22;6354;51.026;8.968;2023-04-21T04:16:50;9.50;99.90
12578;DHT22;6354;51.026;8.968;2023-04-21T04:19:18;9.50;99.90
12578;DHT22;6354;51.026;8.968;2023-04-21T04:21:46;9.50;99.90
12578;DHT22;6354;51.026;8.968;2023-04-21T04:24:14;9.50;99.90
12578;DHT22;6354;51.026;8.968;2023-04-21T04:26:42;9.60;99.90
12578;DHT22;6354;51.026;8.968;2023-04-21T04:29:11;9.50;99.90
12578;DHT22;6354;51.026;8.968;2023-04-21T04:31:39;9.50;99.90
12578;DHT22;6354;51.026;8.968;2023-04-21T04:34:09;9.60;99.90
12578;DHT22;6354;51.026;8.968;2023-04-21T04:36:37;9.60;99.90
12578;DHT22;6354;51.026;8.968;2023-04-21T04:39:05;9.70;99.90
12578;DHT22;6354;51.026;8.968;2023-04-21T04:41:35;9.70;99.90
12578;DHT22;6354;51.026;8.968;2023-04-21T04:44:03;9.70;99.90
12578;DHT22;6354;51.026;8.968;2023-04-21T04:46:32;9.60;99.90
12578;DHT22;6354;51.026;8.968;2023-04-21T04:49:00;9.60;99.90
12578;DHT22;6354;51.026;8.968;2023-04-21T04:51:29;9.70;99.90
12578;DHT22;6354;51.026;8.968;2023-04-21T04:53:58;9.70;99.90
12578;DHT22;6354;51.026;8.968;2023-04-21T04:56:28;9.60;99.90
12578;DHT22;6354;51.026;8.968;2023-04-21T04:58:56;9.50;99.90
12578;DHT22;6354;51.026;8.968;2023-04-21T05:01:24;9.60;99.90
12578;DHT22;6354;51.026;8.968;2023-04-21T05:03:56;9.60;99.90
12578;DHT22;6354;51.026;8.968;2023-04-21T05:06:24;9.70;99.90
12578;DHT22;6354;51.026;8.968;2023-04-21T05:08:55;9.70;99.90
12578;DHT22;6354;51.026;8.968;2023-04-21T05:11:23;9.70;99.90
12578;DHT22;6354;51.026;8.968;2023-04-21T05:13:51;9.80;99.90
12578;DHT22;6354;51.026;8.968;2023-04-21T05:16:19;9.80;99.90
12578;DHT22;6354;51.026;8.968;2023-04-21T05:18:47;9.70;99.90
12578;DHT22;6354;51.026;8.968;2023-04-21T05:21:23;9.90;99.90
12578;DHT22;6354;51.026;8.968;2023-04-21T05:23:57;9.90;99.90
12578;DHT22;6354;51.026;8.968;2023-04-21T05:26:26;9.90;99.90
12578;DHT22;6354;51.026;8.968;2023-04-21T05:28:55;10.00;99.90
12578;DHT22;6354;51.026;8.968;2023-04-21T05:31:24;10.00;99.90
12578;DHT22;6354;51.026;8.968;2023-04-21T05:33:52;10.00;99.90
12578;DHT22;6354;51.026;8.968;2023-04-21T05:36:20;10.00;99.90
12578;DHT22;6354;51.026;8.968;2023-04-21T05:38:50;10.10;99.90
12578;DHT22;6354;51.026;8.968;2023-04-21T05:41:21;10.00;99.90
12578;DHT22;6354;51.026;8.968;2023-04-21T05:43:49;10.00;99.90
12578;DHT22;6354;51.026;8.968;2023-04-21T05:46:17;10.00;99.90
12578;DHT22;6354;51.026;8.968;2023-04-21T05:48:45;10.10;99.90
12578;DHT22;6354;51.026;8.968;2023-04-21T05:51:14;10.00;99.90
12578;DHT22;6354;51.026;8.968;2023-04-21T05:53:43;10.00;99.90
12578;DHT22;6354;51.026;8.968;2023-04-21T05:56:12;10.10;99.90
12578;DHT22;6354;51.026;8.968;2023-04-21T05:58:41;10.20;99.90
12578;DHT22;6354;51.026;8.968;2023-04-21T06:01:09;10.30;99.90
12578;DHT22;6354;51.026;8.968;2023-04-21T06:03:38;10.30;99.90
12578;DHT22;6354;51.026;8.968;2023-04-21T06:06:07;10.30;99.90
12578;DHT22;6354;51.026;8.968;2023-04-21T06:08:37;10.30;99.90
12578;DHT22;6354;51.026;8.968;2023-04-21T06:11:05;10.50;99.90
12578;DHT22;6354;51.026;8.968;2023-04-21T06:13:33;10.50;99.90
12578;DHT22;6354;51.026;8.968;2023-04-21T06:16:05;10.80;99.90
12578;DHT22;6354;51.026;8.968;2023-04-21T06:18:33;10.70;99.90
12578;DHT22;6354;51.026;8.968;2023-04-21T06:21:01;10.80;99.90
12578;DHT22;6354;51.026;8.968;2023-04-21T06:23:29;11.00;99.90
12578;DHT22;6354;51.026;8.968;2023-04-21T06:25:58;11.20;99.90
12578;DHT22;6354;51.026;8.968;2023-04-21T06:28:30;11.30;99.90
12578;DHT22;6354;51.026;8.968;2023-04-21T06:30:58;11.40;99.90
12578;DHT22;6354;51.026;8.968;2023-04-21T06:33:28;11.40;99.90
12578;DHT22;6354;51.026;8.968;2023-04-21T06:35:56;11.60;99.90
12578;DHT22;6354;51.026;8.968;2023-04-21T06:38:24;11.60;99.90
12578;DHT22;6354;51.026;8.968;2023-04-21T06:40:52;11.70;99.90
12578;DHT22;6354;51.026;8.968;2023-04-21T06:43:20;11.70;99.90
12578;DHT22;6354;51.026;8.968;2023-04-21T06:45:48;11.80;99.90
12578;DHT22;6354;51.026;8.968;2023-04-21T06:48:16;12.00;99.90
12578;DHT22;6354;51.026;8.968;2023-04-21T06:50:46;12.00;99.90
12578;DHT22;6354;51.026;8.968;2023-04-21T06:53:14;12.20;99.90
12578;DHT22;6354;51.026;8.968;2023-04-21T06:55:43;12.50;99.90
12578;DHT22;6354;51.026;8.968;2023-04-21T06:58:11;12.40;99.90
12578;DHT22;6354;51.026;8.968;2023-04-21T07:00:39;12.40;99.90
12578;DHT22;6354;51.026;8.968;2023-04-21T07:03:08;12.70;99.90
12578;DHT22;6354;51.026;8.968;2023-04-21T07:05:36;13.10;99.90
12578;DHT22;6354;51.026;8.968;2023-04-21T07:08:05;13.90;99.90
12578;DHT22;6354;51.026;8.968;2023-04-21T07:10:33;14.40;99.90
12578;DHT22;6354;51.026;8.968;2023-04-21T07:13:01;14.80;99.90
12578;DHT22;6354;51.026;8.968;2023-04-21T07:15:29;14.70;99.90
12578;DHT22;6354;51.026;8.968;2023-04-21T07:17:57;14.50;99.90
12578;DHT22;6354;51.026;8.968;2023-04-21T07:20:26;14.40;99.90
12578;DHT22;6354;51.026;8.968;2023-04-21T07:22:54;13.70;99.90
12578;DHT22;6354;51.026;8.968;2023-04-21T07:25:23;13.40;99.90
12578;DHT22;6354;51.026;8.968;2023-04-21T07:27:51;13.10;99.90
12578;DHT22;6354;51.026;8.968;2023-04-21T07:30:19;13.00;99.90
12578;DHT22;6354;51.026;8.968;2023-04-21T07:32:47;12.80;99.90
12578;DHT22;6354;51.026;8.968;2023-04-21T07:35:16;12.80;99.90
12578;DHT22;6354;51.026;8.968;2023-04-21T07:37:44;12.70;99.90
12578;DHT22;6354;51.026;8.968;2023-04-21T07:40:13;12.60;99.90
12578;DHT22;6354;51.026;8.968;2023-04-21T07:42:42;12.70;99.90
12578;DHT22;6354;51.026;8.968;2023-04-21T07:45:11;12.80;99.90
12578;DHT22;6354;51.026;8.968;2023-04-21T07:47:39;13.10;99.90
12578;DHT22;6354;51.026;8.968;2023-04-21T07:50:08;13.60;99.90
12578;DHT22;6354;51.026;8.968;2023-04-21T07:52:36;14.00;99.90
12578;DHT22;6354;51.026;8.968;2023-04-21T07:55:05;14.50;99.90
12578;DHT22;6354;51.026;8.968;2023-04-21T07:57:33;15.00;99.90
12578;DHT22;6354;51.026;8.968;2023-04-21T08:00:06;15.00;99.90
12578;DHT22;6354;51.026;8.968;2023-04-21T08:02:35;15.20;99.90
12578;DHT22;6354;51.026;8.968;2023-04-21T08:05:03;15.00;99.90
12578;DHT22;6354;51.026;8.968;2023-04-21T08:07:32;14.90;99.90
12578;DHT22;6354;51.026;8.968;2023-04-21T08:09:59;15.00;99.90
12578;DHT22;6354;51.026;8.968;2023-04-21T08:12:28;14.60;99.90
12578;DHT22;6354;51.026;8.968;2023-04-21T08:14:56;14.20;99.90
12578;DHT22;6354;51.026;8.968;2023-04-21T08:17:25;14.00;99.90
12578;DHT22;6354;51.026;8.968;2023-04-21T08:19:53;14.10;99.90
12578;DHT22;6354;51.026;8.968;2023-04-21T08:22:24;14.00;99.90
12578;DHT22;6354;51.026;8.968;2023-04-21T08:24:52;13.90;99.90
12578;DHT22;6354;51.026;8.968;2023-04-21T08:27:20;14.00;99.90
12578;DHT22;6354;51.026;8.968;2023-04-21T08:29:49;14.00;99.90
12578;DHT22;6354;51.026;8.968;2023-04-21T08:32:17;14.10;99.90
12578;DHT22;6354;51.026;8.968;2023-04-21T08:34:51;14.10;99.90
12578;DHT22;6354;51.026;8.968;2023-04-21T08:37:20;14.40;99.90
12578;DHT22;6354;51.026;8.968;2023-04-21T08:39:49;14.50;99.90
12578;DHT22;6354;51.026;8.968;2023-04-21T08:42:17;14.60;99.90
12578;DHT22;6354;51.026;8.968;2023-04-21T08:44:46;14.70;99.90
12578;DHT22;6354;51.026;8.968;2023-04-21T08:47:14;14.90;99.90
12578;DHT22;6354;51.026;8.968;2023-04-21T08:49:42;14.90;99.90
12578;DHT22;6354;51.026;8.968;2023-04-21T08:52:12;15.00;99.90
12578;DHT22;6354;51.026;8.968;2023-04-21T08:54:40;15.20;99.90
12578;DHT22;6354;51.026;8.968;2023-04-21T08:57:09;15.80;99.90
12578;DHT22;6354;51.026;8.968;2023-04-21T08:59:42;16.30;99.90
12578;DHT22;6354;51.026;8.968;2023-04-21T09:02:11;16.60;99.90
12578;DHT22;6354;51.026;8.968;2023-04-21T09:04:41;16.80;99.90
12578;DHT22;6354;51.026;8.968;2023-04-21T09:07:29;16.80;99.90
12578;DHT22;6354;51.026;8.968;2023-04-21T09:09:58;17.00;99.90
12578;DHT22;6354;51.026;8.968;2023-04-21T09:12:28;17.10;99.90
12578;DHT22;6354;51.026;8.968;2023-04-21T09:14:57;17.20;99.90
12578;DHT22;6354;51.026;8.968;2023-04-21T09:17:28;17.00;99.90
12578;DHT22;6354;51.026;8.968;2023-04-21T09:20:12;17.10;99.90
12578;DHT22;6354;51.026;8.968;2023-04-21T09:22:42;17.10;99.90
12578;DHT22;6354;51.026;8.968;2023-04-21T09:25:15;16.90;99.90
12578;DHT22;6354;51.026;8.968;2023-04-21T09:27:44;16.70;99.90
12578;DHT22;6354;51.026;8.968;2023-04-21T09:30:12;16.90;99.90
12578;DHT22;6354;51.026;8.968;2023-04-21T09:32:40;17.10;99.90
12578;DHT22;6354;51.026;8.968;2023-04-21T09:35:09;17.10;99.90
12578;DHT22;6354;51.026;8.968;2023-04-21T09:37:38;17.30;99.90
12578;DHT22;6354;51.026;8.968;2023-04-21T09:40:12;17.50;99.90
12578;DHT22;6354;51.026;8.968;2023-04-21T09:42:40;17.40;99.90
12578;DHT22;6354;51.026;8.968;2023-04-21T09:45:11;17.40;99.90
12578;DHT22;6354;51.026;8.968;2023-04-21T09:47:43;17.40;99.90
12578;DHT22;6354;51.026;8.968;2023-04-21T09:50:15;17.40;99.90
12578;DHT22;6354;51.026;8.968;2023-04-21T09:53:05;17.30;99.90
12578;DHT22;6354;51.026;8.968;2023-04-21T09:55:36;17.40;99.90
12578;DHT22;6354;51.026;8.968;2023-04-21T09:58:05;17.40;99.90
12578;DHT22;6354;51.026;8.968;2023-04-21T10:00:37;17.30;99.90
12578;DHT22;6354;51.026;8.968;2023-04-21T10:03:07;17.30;99.90
12578;DHT22;6354;51.026;8.968;2023-04-21T10:05:38;17.40;99.90
12578;DHT22;6354;51.026;8.968;2023-04-21T10:08:09;17.50;99.90
12578;DHT22;6354;51.026;8.968;2023-04-21T10:10:39;17.60;99.90
12578;DHT22;6354;51.026;8.968;2023-04-21T10:13:12;17.60;99.90
12578;DHT22;6354;51.026;8.968;2023-04-21T10:15:42;17.50;99.90
12578;DHT22;6354;51.026;8.968;2023-04-21T10:18:11;17.60;99.90
12578;DHT22;6354;51.026;8.968;2023-04-21T10:20:54;17.50;99.90
12578;DHT22;6354;51.026;8.968;2023-04-21T10:23:30;17.50;99.90
12578;DHT22;6354;51.026;8.968;2023-04-21T10:26:04;17.50;99.90
12578;DHT22;6354;51.026;8.968;2023-04-21T10:28:52;17.60;99.90
12578;DHT22;6354;51.026;8.968;2023-04-21T10:31:30;17.60;99.90
12578;DHT22;6354;51.026;8.968;2023-04-21T10:34:20;17.60;99.90
12578;DHT22;6354;51.026;8.968;2023-04-21T10:37:15;17.60;99.90
12578;DHT22;6354;51.026;8.968;2023-04-21T10:39:51;17.80;99.90
12578;DHT22;6354;51.026;8.968;2023-04-21T10:42:25;17.70;99.90
12578;DHT22;6354;51.026;8.968;2023-04-21T10:45:08;17.90;99.90
12578;DHT22;6354;51.026;8.968;2023-04-21T10:47:39;18.00;99.90
12578;DHT22;6354;51.026;8.968;2023-04-21T10:50:20;17.90;99.90
12578;DHT22;6354;51.026;8.968;2023-04-21T10:52:53;17.60;99.90
12578;DHT22;6354;51.026;8.968;2023-04-21T10:55:25;17.60;99.90
12578;DHT22;6354;51.026;8.968;2023-04-21T10:57:55;17.50;99.90
12578;DHT22;6354;51.026;8.968;2023-04-21T11:00:24;17.40;99.90
12578;DHT22;6354;51.026;8.968;2023-04-21T11:02:57;17.50;99.90
12578;DHT22;6354;51.026;8.968;2023-04-21T11:05:30;17.60;99.90
12578;DHT22;6354;51.026;8.968;2023-04-21T11:08:08;17.70;99.90
12578;DHT22;6354;51.026;8.968;2023-04-21T11:10:51;17.70;99.90
12578;DHT22;6354;51.026;8.968;2023-04-21T11:13:23;17.60;99.90
12578;DHT22;6354;51.026;8.968;2023-04-21T11:15:59;17.60;99.90
12578;DHT22;6354;51.026;8.968;2023-04-21T11:18:37;17.60;99.90
12578;DHT22;6354;51.026;8.968;2023-04-21T11:21:06;17.70;99.90
12578;DHT22;6354;51.026;8.968;2023-04-21T11:23:37;18.10;99.90
12578;DHT22;6354;51.026;8.968;2023-04-21T11:26:05;18.30;99.90
12578;DHT22;6354;51.026;8.968;2023-04-21T11:28:35;18.30;99.90
12578;DHT22;6354;51.026;8.968;2023-04-21T11:31:03;18.50;99.90
12578;DHT22;6354;51.026;8.968;2023-04-21T11:33:35;18.60;99.90
12578;DHT22;6354;51.026;8.968;2023-04-21T11:36:04;18.80;99.90
12578;DHT22;6354;51.026;8.968;2023-04-21T11:38:37;18.80;99.90
12578;DHT22;6354;51.026;8.968;2023-04-21T11:41:06;19.00;99.90
12578;DHT22;6354;51.026;8.968;2023-04-21T11:43:36;18.80;99.90
12578;DHT22;6354;51.026;8.968;2023-04-21T11:46:16;18.70;99.90
12578;DHT22;6354;51.026;8.968;2023-04-21T11:48:45;18.80;99.90
12578;DHT22;6354;51.026;8.968;2023-04-21T11:51:17;18.80;99.90
12578;DHT22;6354;51.026;8.968;2023-04-21T11:53:48;18.80;99.90
12578;DHT22;6354;51.026;8.968;2023-04-21T11:56:19;18.80;99.90
12578;DHT22;6354;51.026;8.968;2023-04-21T11:58:50;18.70;99.90
12578;DHT22;6354;51.026;8.968;2023-04-21T12:01:19;18.70;99.90
12578;DHT22;6354;51.026;8.968;2023-04-21T12:03:51;18.80;99.90
12578;DHT22;6354;51.026;8.968;2023-04-21T12:06:24;18.80;99.90
12578;DHT22;6354;51.026;8.968;2023-04-21T12:08:55;18.60;99.90
12578;DHT22;6354;51.026;8.968;2023-04-21T12:11:24;18.60;99.90
12578;DHT22;6354;51.026;8.968;2023-04-21T12:13:57;18.60;99.90
12578;DHT22;6354;51.026;8.968;2023-04-21T12:16:26;18.70;99.90
12578;DHT22;6354;51.026;8.968;2023-04-21T12:18:55;18.80;99.90
12578;DHT22;6354;51.026;8.968;2023-04-21T12:21:26;18.80;99.90
12578;DHT22;6354;51.026;8.968;2023-04-21T12:23:54;18.70;99.90
12578;DHT22;6354;51.026;8.968;2023-04-21T12:26:22;18.70;99.90
12578;DHT22;6354;51.026;8.968;2023-04-21T12:28:50;18.50;99.90
12578;DHT22;6354;51.026;8.968;2023-04-21T12:31:19;18.40;99.90
12578;DHT22;6354;51.026;8.968;2023-04-21T12:33:47;18.60;99.90
12578;DHT22;6354;51.026;8.968;2023-04-21T12:36:15;18.70;99.90
12578;DHT22;6354;51.026;8.968;2023-04-21T12:38:43;18.60;99.90
12578;DHT22;6354;51.026;8.968;2023-04-21T12:41:11;18.60;99.90
12578;DHT22;6354;51.026;8.968;2023-04-21T12:43:39;18.60;99.90
12578;DHT22;6354;51.026;8.968;2023-04-21T12:46:07;18.70;99.90
12578;DHT22;6354;51.026;8.968;2023-04-21T12:48:37;18.60;99.90
12578;DHT22;6354;51.026;8.968;2023-04-21T12:51:05;18.70;99.90
12578;DHT22;6354;51.026;8.968;2023-04-21T12:53:33;18.50;99.90
12578;DHT22;6354;51.026;8.968;2023-04-21T12:56:02;18.50;99.90
12578;DHT22;6354;51.026;8.968;2023-04-21T12:58:31;18.50;99.90
12578;DHT22;6354;51.026;8.968;2023-04-21T13:00:59;18.60;99.90
12578;DHT22;6354;51.026;8.968;2023-04-21T13:03:27;18.80;99.90
12578;DHT22;6354;51.026;8.968;2023-04-21T13:05:57;18.90;99.90
12578;DHT22;6354;51.026;8.968;2023-04-21T13:08:26;18.90;99.90
12578;DHT22;6354;51.026;8.968;2023-04-21T13:10:54;18.90;99.90
12578;DHT22;6354;51.026;8.968;2023-04-21T13:13:22;19.00;99.90
12578;DHT22;6354;51.026;8.968;2023-04-21T13:15:49;18.90;99.90
12578;DHT22;6354;51.026;8.968;2023-04-21T13:18:17;18.60;99.90
12578;DHT22;6354;51.026;8.968;2023-04-21T13:20:45;18.60;99.90
12578;DHT22;6354;51.026;8.968;2023-04-21T13:23:15;18.50;99.90
12578;DHT22;6354;51.026;8.968;2023-04-21T13:25:43;18.40;99.90
12578;DHT22;6354;51.026;8.968;2023-04-21T13:28:12;18.30;99.90
12578;DHT22;6354;51.026;8.968;2023-04-21T13:30:40;18.20;99.90
12578;DHT22;6354;51.026;8.968;2023-04-21T13:33:08;18.10;99.90
12578;DHT22;6354;51.026;8.968;2023-04-21T13:35:37;18.10;99.90
12578;DHT22;6354;51.026;8.968;2023-04-21T13:38:05;18.00;99.90
12578;DHT22;6354;51.026;8.968;2023-04-21T13:40:34;18.00;99.90
12578;DHT22;6354;51.026;8.968;2023-04-21T13:43:03;18.00;99.90
12578;DHT22;6354;51.026;8.968;2023-04-21T13:45:31;18.10;99.90
12578;DHT22;6354;51.026;8.968;2023-04-21T13:47:59;18.10;99.90
12578;DHT22;6354;51.026;8.968;2023-04-21T13:50:27;18.40;99.90
12578;DHT22;6354;51.026;8.968;2023-04-21T13:52:55;18.50;99.90
12578;DHT22;6354;51.026;8.968;2023-04-21T13:55:23;18.70;99.90
12578;DHT22;6354;51.026;8.968;2023-04-21T13:57:53;18.80;99.90
12578;DHT22;6354;51.026;8.968;2023-04-21T14:00:21;18.90;99.90
12578;DHT22;6354;51.026;8.968;2023-04-21T14:02:49;18.90;99.90
12578;DHT22;6354;51.026;8.968;2023-04-21T14:05:18;18.80;99.90
12578;DHT22;6354;51.026;8.968;2023-04-21T14:07:46;18.60;99.90
12578;DHT22;6354;51.026;8.968;2023-04-21T14:10:14;18.60;99.90
12578;DHT22;6354;51.026;8.968;2023-04-21T14:12:42;18.60;99.90
12578;DHT22;6354;51.026;8.968;2023-04-21T14:15:12;18.50;99.90
12578;DHT22;6354;51.026;8.968;2023-04-21T14:17:40;18.50;99.90
12578;DHT22;6354;51.026;8.968;2023-04-21T14:20:09;18.40;99.90
12578;DHT22;6354;51.026;8.968;2023-04-21T14:22:37;18.40;99.90
12578;DHT22;6354;51.026;8.968;2023-04-21T14:25:06;18.50;99.90
12578;DHT22;6354;51.026;8.968;2023-04-21T14:27:34;18.60;99.90
12578;DHT22;6354;51.026;8.968;2023-04-21T14:30:03;18.70;99.90
12578;DHT22;6354;51.026;8.968;2023-04-21T14:32:32;18.70;99.90
12578;DHT22;6354;51.026;8.968;2023-04-21T14:35:01;18.70;99.90
12578;DHT22;6354;51.026;8.968;2023-04-21T14:37:30;18.70;99.90
12578;DHT22;6354;51.026;8.968;2023-04-21T14:39:58;18.60;99.90
12578;DHT22;6354;51.026;8.968;2023-04-21T14:42:27;18.60;99.90
12578;DHT22;6354;51.026;8.968;2023-04-21T14:44:55;18.50;99.90
12578;DHT22;6354;51.026;8.968;2023-04-21T14:47:23;18.50;99.90
12578;DHT22;6354;51.026;8.968;2023-04-21T14:49:53;18.70;99.90
12578;DHT22;6354;51.026;8.968;2023-04-21T14:52:22;18.80;99.90
12578;DHT22;6354;51.026;8.968;2023-04-21T14:54:52;19.00;99.90
12578;DHT22;6354;51.026;8.968;2023-04-21T14:57:20;19.00;99.90
12578;DHT22;6354;51.026;8.968;2023-04-21T14:59:49;19.10;99.90
12578;DHT22;6354;51.026;8.968;2023-04-21T15:02:18;18.90;99.90
12578;DHT22;6354;51.026;8.968;2023-04-21T15:04:47;18.80;99.90
12578;DHT22;6354;51.026;8.968;2023-04-21T15:07:17;18.80;99.90
12578;DHT22;6354;51.026;8.968;2023-04-21T15:09:50;18.80;99.90
12578;DHT22;6354;51.026;8.968;2023-04-21T15:12:18;18.90;99.90
12578;DHT22;6354;51.026;8.968;2023-04-21T15:14:46;18.90;99.90
12578;DHT22;6354;51.026;8.968;2023-04-21T15:17:14;18.90;99.90
12578;DHT22;6354;51.026;8.968;2023-04-21T15:19:42;18.80;99.90
12578;DHT22;6354;51.026;8.968;2023-04-21T15:22:10;18.70;99.90
12578;DHT22;6354;51.026;8.968;2023-04-21T15:24:40;18.80;99.90
12578;DHT22;6354;51.026;8.968;2023-04-21T15:27:08;18.60;99.90
12578;DHT22;6354;51.026;8.968;2023-04-21T15:29:36;18.60;99.90
12578;DHT22;6354;51.026;8.968;2023-04-21T15:32:04;18.50;99.90
12578;DHT22;6354;51.026;8.968;2023-04-21T15:34:32;18.40;99.90
12578;DHT22;6354;51.026;8.968;2023-04-21T15:37:00;18.40;99.90
12578;DHT22;6354;51.026;8.968;2023-04-21T15:39:28;18.40;99.90
12578;DHT22;6354;51.026;8.968;2023-04-21T15:41:57;18.50;99.90
12578;DHT22;6354;51.026;8.968;2023-04-21T15:44:27;18.60;99.90
12578;DHT22;6354;51.026;8.968;2023-04-21T15:46:55;18.70;99.90
12578;DHT22;6354;51.026;8.968;2023-04-21T15:49:23;18.80;99.90
12578;DHT22;6354;51.026;8.968;2023-04-21T15:51:52;18.90;99.90
12578;DHT22;6354;51.026;8.968;2023-04-21T15:54:20;18.90;99.90
12578;DHT22;6354;51.026;8.968;2023-04-21T15:56:48;18.90;99.90
12578;DHT22;6354;51.026;8.968;2023-04-21T15:59:18;19.00;99.90
12578;DHT22;6354;51.026;8.968;2023-04-21T16:01:48;18.90;99.90
12578;DHT22;6354;51.026;8.968;2023-04-21T16:04:17;18.80;99.90
12578;DHT22;6354;51.026;8.968;2023-04-21T16:06:45;18.90;99.90